Aérodrome :
LOGIN :

S'inscrire | Disclaimer

   EN    FR    IT 

 










Légende :    VFR   VFR Marginal   IFR   IFR Intensif   IFR Très Intensif
Visi : 
Plafond : 
>= 8 km
>= 3000ft
5 à 8 km
1000 à 3000 ft
1500m à 5 km
500 à 1000 ft
800 à 1500m
200 à 500 ft
< 800m
< 200 ft
Symboles :   Orages  Brouillard  Fortes neiges  Fortes précipitations  Vent > 20 kt
SIGMETs :   Divers  Orages  Givrage  Turbulence  Onde Orograph.  Cendres Volcan.







- Altitude de l'aérodrome : 1197 ft
- Code IATA : SPM


ETAD - Spangdahlem Ab

DERNIER METAR :
  • 211656Z AUTO 08009KT 9999 CLR 20/03 A2999 RMK AO2 SLP142 T01990031 $

METARs EXPIRÉS :
  • 211556Z AUTO 10011KT 9999 CLR 22/03 A3000 RMK AO2 SLP143 T02160028 $
  • 211456Z AUTO 07009KT 9999 CLR 22/03 A3002 RMK AO2 SLP150 T02240030 57018 $

TAF COR TAF ETAD
Valide du 21 à 14h jusqu'au 22 à 20h UTC


211403Z 2114/2220 10006KT 9999 SKC QNH3000INS
BECMG 2117/2118 VRB06KT 9999 FEW030 QNH2992INS
BECMG 2208/2209 12006KT 9999 SCT030 BKN050 QNH2984INS
BECMG 2217/2218 16006KT 9999 SCT020 BKN040 QNH2980INS
BECMG 2219/2220 20016KT 9000 -SHRA SCT015 BKN030 QNH2982INS TX23/2115Z TN10/2204Z
Pas de NOTAMs connus pour ce terrain.



MET'MAP, la Météo Aéronautique d'un coup d'oeil ! - Copyright ORBIFLY Décembre 2007 - Disclaimer

ORBIFLY MET'MAP TEAM :

Programmation & Développement : Alexandra Zaïnal
Conception & Développement : Baudouin d'Aumeries
Co-Programmation & Développement : Marc-Olivier Méhu
Soutien technique & logistique : Manuel Goepfert

Contact : metmap@orbifly.com




SOURCES & CREDITS :

   NOAA